sensor_id;sensor_type;location;lat;lon;timestamp;P1;durP1;ratioP1;P2;durP2;ratioP2
962;SDS011;469;48.770;9.176;2023-02-11T00:00:06;50.78;;;16.90;;
962;SDS011;469;48.770;9.176;2023-02-11T00:02:33;44.47;;;16.35;;
962;SDS011;469;48.770;9.176;2023-02-11T00:05:00;49.17;;;17.30;;
962;SDS011;469;48.770;9.176;2023-02-11T00:07:27;40.35;;;16.38;;
962;SDS011;469;48.770;9.176;2023-02-11T00:09:54;46.22;;;17.85;;
962;SDS011;469;48.770;9.176;2023-02-11T00:12:21;44.50;;;15.80;;
962;SDS011;469;48.770;9.176;2023-02-11T00:14:50;49.65;;;16.65;;
962;SDS011;469;48.770;9.176;2023-02-11T00:17:19;49.80;;;17.13;;
962;SDS011;469;48.770;9.176;2023-02-11T00:19:47;45.72;;;16.60;;
962;SDS011;469;48.770;9.176;2023-02-11T00:22:14;45.33;;;16.95;;
962;SDS011;469;48.770;9.176;2023-02-11T00:24:42;42.08;;;16.75;;
962;SDS011;469;48.770;9.176;2023-02-11T00:27:09;46.42;;;16.00;;
962;SDS011;469;48.770;9.176;2023-02-11T00:29:36;38.88;;;15.35;;
962;SDS011;469;48.770;9.176;2023-02-11T00:32:04;40.72;;;16.23;;
962;SDS011;469;48.770;9.176;2023-02-11T00:34:33;44.08;;;16.05;;
962;SDS011;469;48.770;9.176;2023-02-11T00:37:00;46.03;;;17.27;;
962;SDS011;469;48.770;9.176;2023-02-11T00:39:27;48.42;;;15.65;;
962;SDS011;469;48.770;9.176;2023-02-11T00:41:54;36.08;;;14.65;;
962;SDS011;469;48.770;9.176;2023-02-11T00:44:21;38.42;;;15.27;;
962;SDS011;469;48.770;9.176;2023-02-11T00:46:48;41.60;;;15.00;;
962;SDS011;469;48.770;9.176;2023-02-11T00:49:17;41.40;;;16.25;;
962;SDS011;469;48.770;9.176;2023-02-11T00:51:44;42.85;;;16.55;;
962;SDS011;469;48.770;9.176;2023-02-11T00:54:11;45.80;;;16.08;;
962;SDS011;469;48.770;9.176;2023-02-11T00:56:38;54.55;;;16.00;;
962;SDS011;469;48.770;9.176;2023-02-11T00:59:05;41.47;;;15.57;;
962;SDS011;469;48.770;9.176;2023-02-11T01:01:33;37.25;;;15.18;;
962;SDS011;469;48.770;9.176;2023-02-11T01:04:00;40.20;;;16.25;;
962;SDS011;469;48.770;9.176;2023-02-11T01:06:28;37.58;;;15.40;;
962;SDS011;469;48.770;9.176;2023-02-11T01:08:55;42.83;;;16.17;;
962;SDS011;469;48.770;9.176;2023-02-11T01:11:22;42.65;;;15.00;;
962;SDS011;469;48.770;9.176;2023-02-11T01:13:49;42.08;;;14.63;;
962;SDS011;469;48.770;9.176;2023-02-11T01:16:17;38.70;;;15.52;;
962;SDS011;469;48.770;9.176;2023-02-11T01:18:44;35.83;;;15.00;;
962;SDS011;469;48.770;9.176;2023-02-11T01:21:11;48.10;;;16.60;;
962;SDS011;469;48.770;9.176;2023-02-11T01:23:40;35.17;;;14.95;;
962;SDS011;469;48.770;9.176;2023-02-11T01:26:07;40.80;;;15.75;;
962;SDS011;469;48.770;9.176;2023-02-11T01:28:34;41.25;;;15.23;;
962;SDS011;469;48.770;9.176;2023-02-11T01:31:01;44.88;;;15.25;;
962;SDS011;469;48.770;9.176;2023-02-11T01:33:28;38.13;;;15.82;;
962;SDS011;469;48.770;9.176;2023-02-11T01:35:58;46.33;;;15.70;;
962;SDS011;469;48.770;9.176;2023-02-11T01:38:25;45.53;;;17.52;;
962;SDS011;469;48.770;9.176;2023-02-11T01:40:54;54.00;;;20.63;;
962;SDS011;469;48.770;9.176;2023-02-11T01:43:22;39.05;;;14.65;;
962;SDS011;469;48.770;9.176;2023-02-11T01:46:00;46.15;;;15.82;;
962;SDS011;469;48.770;9.176;2023-02-11T01:48:28;41.33;;;15.77;;
962;SDS011;469;48.770;9.176;2023-02-11T01:50:58;40.95;;;15.88;;
962;SDS011;469;48.770;9.176;2023-02-11T01:53:27;43.47;;;15.48;;
962;SDS011;469;48.770;9.176;2023-02-11T01:56:15;38.72;;;15.00;;
962;SDS011;469;48.770;9.176;2023-02-11T01:59:02;37.53;;;14.13;;
962;SDS011;469;48.770;9.176;2023-02-11T02:01:30;39.17;;;15.50;;
962;SDS011;469;48.770;9.176;2023-02-11T02:03:59;39.65;;;15.85;;
962;SDS011;469;48.770;9.176;2023-02-11T02:06:29;39.67;;;15.73;;
962;SDS011;469;48.770;9.176;2023-02-11T02:09:00;38.63;;;14.95;;
962;SDS011;469;48.770;9.176;2023-02-11T02:11:29;41.78;;;15.20;;
962;SDS011;469;48.770;9.176;2023-02-11T02:13:56;40.67;;;15.18;;
962;SDS011;469;48.770;9.176;2023-02-11T02:16:25;37.58;;;15.68;;
962;SDS011;469;48.770;9.176;2023-02-11T02:18:58;38.78;;;15.43;;
962;SDS011;469;48.770;9.176;2023-02-11T02:21:35;37.92;;;14.25;;
962;SDS011;469;48.770;9.176;2023-02-11T02:24:15;39.85;;;14.60;;
962;SDS011;469;48.770;9.176;2023-02-11T02:27:03;47.15;;;15.18;;
962;SDS011;469;48.770;9.176;2023-02-11T02:32:29;37.00;;;14.60;;
962;SDS011;469;48.770;9.176;2023-02-11T02:34:59;42.47;;;15.68;;
962;SDS011;469;48.770;9.176;2023-02-11T02:37:29;50.45;;;16.15;;
962;SDS011;469;48.770;9.176;2023-02-11T02:39:58;42.90;;;15.25;;
962;SDS011;469;48.770;9.176;2023-02-11T02:42:28;36.40;;;14.82;;
962;SDS011;469;48.770;9.176;2023-02-11T02:44:56;37.97;;;14.40;;
962;SDS011;469;48.770;9.176;2023-02-11T02:47:23;39.70;;;15.23;;
962;SDS011;469;48.770;9.176;2023-02-11T02:49:52;37.15;;;14.95;;
962;SDS011;469;48.770;9.176;2023-02-11T02:52:23;30.65;;;13.15;;
962;SDS011;469;48.770;9.176;2023-02-11T02:57:45;37.90;;;14.98;;
962;SDS011;469;48.770;9.176;2023-02-11T03:00:17;38.55;;;14.40;;
962;SDS011;469;48.770;9.176;2023-02-11T03:02:49;37.17;;;15.65;;
962;SDS011;469;48.770;9.176;2023-02-11T03:05:20;47.17;;;15.52;;
962;SDS011;469;48.770;9.176;2023-02-11T03:07:51;37.60;;;15.23;;
962;SDS011;469;48.770;9.176;2023-02-11T03:10:21;41.88;;;15.52;;
962;SDS011;469;48.770;9.176;2023-02-11T03:12:50;40.70;;;14.88;;
962;SDS011;469;48.770;9.176;2023-02-11T03:15:19;34.60;;;14.85;;
962;SDS011;469;48.770;9.176;2023-02-11T03:17:47;39.47;;;15.52;;
962;SDS011;469;48.770;9.176;2023-02-11T03:20:16;42.60;;;16.70;;
962;SDS011;469;48.770;9.176;2023-02-11T03:22:46;44.50;;;14.30;;
962;SDS011;469;48.770;9.176;2023-02-11T03:25:13;37.80;;;14.68;;
962;SDS011;469;48.770;9.176;2023-02-11T03:27:42;37.28;;;14.85;;
962;SDS011;469;48.770;9.176;2023-02-11T03:30:12;44.05;;;14.43;;
962;SDS011;469;48.770;9.176;2023-02-11T03:32:42;37.55;;;14.68;;
962;SDS011;469;48.770;9.176;2023-02-11T03:35:13;39.25;;;14.27;;
962;SDS011;469;48.770;9.176;2023-02-11T03:37:42;36.17;;;14.20;;
962;SDS011;469;48.770;9.176;2023-02-11T03:40:12;33.70;;;13.55;;
962;SDS011;469;48.770;9.176;2023-02-11T03:42:41;34.28;;;12.98;;
962;SDS011;469;48.770;9.176;2023-02-11T03:45:10;37.92;;;14.05;;
962;SDS011;469;48.770;9.176;2023-02-11T03:47:39;36.67;;;13.95;;
962;SDS011;469;48.770;9.176;2023-02-11T03:50:08;41.03;;;15.23;;
962;SDS011;469;48.770;9.176;2023-02-11T03:52:35;48.13;;;14.93;;
962;SDS011;469;48.770;9.176;2023-02-11T03:55:05;41.95;;;15.65;;
962;SDS011;469;48.770;9.176;2023-02-11T03:57:34;35.95;;;14.20;;
962;SDS011;469;48.770;9.176;2023-02-11T04:00:02;32.03;;;14.05;;
962;SDS011;469;48.770;9.176;2023-02-11T04:02:30;38.80;;;14.50;;
962;SDS011;469;48.770;9.176;2023-02-11T04:04:58;39.25;;;14.38;;
962;SDS011;469;48.770;9.176;2023-02-11T04:07:26;41.15;;;14.52;;
962;SDS011;469;48.770;9.176;2023-02-11T04:09:53;36.38;;;13.95;;
962;SDS011;469;48.770;9.176;2023-02-11T04:12:20;30.42;;;13.45;;
962;SDS011;469;48.770;9.176;2023-02-11T04:14:48;36.95;;;14.30;;
962;SDS011;469;48.770;9.176;2023-02-11T04:17:16;31.15;;;13.38;;
962;SDS011;469;48.770;9.176;2023-02-11T04:19:43;37.28;;;14.18;;
962;SDS011;469;48.770;9.176;2023-02-11T04:22:10;40.92;;;14.90;;
962;SDS011;469;48.770;9.176;2023-02-11T04:24:37;32.90;;;14.00;;
962;SDS011;469;48.770;9.176;2023-02-11T04:27:04;35.80;;;13.82;;
962;SDS011;469;48.770;9.176;2023-02-11T04:29:31;35.78;;;13.23;;
962;SDS011;469;48.770;9.176;2023-02-11T04:32:00;39.47;;;14.50;;
962;SDS011;469;48.770;9.176;2023-02-11T04:34:27;36.20;;;12.98;;
962;SDS011;469;48.770;9.176;2023-02-11T04:36:54;32.70;;;14.35;;
962;SDS011;469;48.770;9.176;2023-02-11T04:39:21;31.98;;;13.68;;
962;SDS011;469;48.770;9.176;2023-02-11T04:41:48;33.50;;;13.35;;
962;SDS011;469;48.770;9.176;2023-02-11T04:44:15;32.45;;;14.88;;
962;SDS011;469;48.770;9.176;2023-02-11T04:46:42;35.88;;;13.10;;
962;SDS011;469;48.770;9.176;2023-02-11T04:49:11;36.13;;;14.73;;
962;SDS011;469;48.770;9.176;2023-02-11T04:51:38;38.03;;;13.13;;
962;SDS011;469;48.770;9.176;2023-02-11T04:54:05;34.63;;;14.27;;
962;SDS011;469;48.770;9.176;2023-02-11T04:56:33;33.67;;;13.43;;
962;SDS011;469;48.770;9.176;2023-02-11T04:59:00;30.17;;;12.30;;
962;SDS011;469;48.770;9.176;2023-02-11T05:01:27;34.92;;;13.00;;
962;SDS011;469;48.770;9.176;2023-02-11T05:03:54;33.42;;;13.75;;
962;SDS011;469;48.770;9.176;2023-02-11T05:06:22;32.75;;;13.57;;
962;SDS011;469;48.770;9.176;2023-02-11T05:08:49;36.10;;;13.75;;
962;SDS011;469;48.770;9.176;2023-02-11T05:11:18;35.03;;;14.02;;
962;SDS011;469;48.770;9.176;2023-02-11T05:13:45;30.02;;;13.30;;
962;SDS011;469;48.770;9.176;2023-02-11T05:16:12;39.55;;;13.95;;
962;SDS011;469;48.770;9.176;2023-02-11T05:18:40;33.15;;;12.63;;
962;SDS011;469;48.770;9.176;2023-02-11T05:21:08;32.42;;;13.80;;
962;SDS011;469;48.770;9.176;2023-02-11T05:23:37;34.35;;;13.43;;
962;SDS011;469;48.770;9.176;2023-02-11T05:26:04;35.53;;;14.25;;
962;SDS011;469;48.770;9.176;2023-02-11T05:28:31;36.40;;;13.80;;
962;SDS011;469;48.770;9.176;2023-02-11T05:30:59;35.83;;;14.02;;
962;SDS011;469;48.770;9.176;2023-02-11T05:33:26;38.45;;;15.10;;
962;SDS011;469;48.770;9.176;2023-02-11T05:35:56;35.38;;;14.63;;
962;SDS011;469;48.770;9.176;2023-02-11T05:38:24;31.75;;;14.30;;
962;SDS011;469;48.770;9.176;2023-02-11T05:40:52;30.88;;;13.98;;
962;SDS011;469;48.770;9.176;2023-02-11T05:43:19;31.33;;;13.65;;
962;SDS011;469;48.770;9.176;2023-02-11T05:45:46;38.65;;;14.75;;
962;SDS011;469;48.770;9.176;2023-02-11T05:48:13;36.20;;;13.55;;
962;SDS011;469;48.770;9.176;2023-02-11T05:50:40;31.05;;;13.32;;
962;SDS011;469;48.770;9.176;2023-02-11T05:53:07;32.40;;;14.18;;
962;SDS011;469;48.770;9.176;2023-02-11T05:55:35;28.80;;;12.80;;
962;SDS011;469;48.770;9.176;2023-02-11T05:58:03;42.67;;;13.60;;
962;SDS011;469;48.770;9.176;2023-02-11T06:00:30;30.00;;;12.80;;
962;SDS011;469;48.770;9.176;2023-02-11T06:02:57;30.38;;;13.00;;
962;SDS011;469;48.770;9.176;2023-02-11T06:05:24;34.55;;;14.25;;
962;SDS011;469;48.770;9.176;2023-02-11T06:07:51;33.13;;;13.77;;
962;SDS011;469;48.770;9.176;2023-02-11T06:10:18;33.33;;;14.23;;
962;SDS011;469;48.770;9.176;2023-02-11T06:12:45;36.33;;;13.93;;
962;SDS011;469;48.770;9.176;2023-02-11T06:15:14;39.30;;;14.75;;
962;SDS011;469;48.770;9.176;2023-02-11T06:17:41;28.83;;;12.88;;
962;SDS011;469;48.770;9.176;2023-02-11T06:20:08;34.22;;;14.73;;
962;SDS011;469;48.770;9.176;2023-02-11T06:22:38;32.63;;;12.48;;
962;SDS011;469;48.770;9.176;2023-02-11T06:25:08;37.67;;;15.95;;
962;SDS011;469;48.770;9.176;2023-02-11T06:27:36;44.97;;;16.15;;
962;SDS011;469;48.770;9.176;2023-02-11T06:30:03;35.45;;;12.95;;
962;SDS011;469;48.770;9.176;2023-02-11T06:32:32;35.55;;;14.20;;
962;SDS011;469;48.770;9.176;2023-02-11T06:35:00;30.35;;;13.80;;
962;SDS011;469;48.770;9.176;2023-02-11T06:37:33;34.45;;;14.00;;
962;SDS011;469;48.770;9.176;2023-02-11T06:40:00;37.30;;;14.82;;
962;SDS011;469;48.770;9.176;2023-02-11T06:42:30;34.08;;;12.75;;
962;SDS011;469;48.770;9.176;2023-02-11T06:44:57;36.20;;;14.23;;
962;SDS011;469;48.770;9.176;2023-02-11T06:47:29;37.70;;;14.43;;
962;SDS011;469;48.770;9.176;2023-02-11T06:49:58;38.92;;;14.32;;
962;SDS011;469;48.770;9.176;2023-02-11T06:52:25;34.08;;;13.73;;
962;SDS011;469;48.770;9.176;2023-02-11T06:54:52;31.70;;;14.18;;
962;SDS011;469;48.770;9.176;2023-02-11T06:57:57;37.08;;;13.77;;
962;SDS011;469;48.770;9.176;2023-02-11T07:00:21;28.55;;;13.13;;
962;SDS011;469;48.770;9.176;2023-02-11T07:02:52;33.80;;;13.93;;
962;SDS011;469;48.770;9.176;2023-02-11T07:05:21;34.08;;;13.88;;
962;SDS011;469;48.770;9.176;2023-02-11T07:07:51;31.17;;;13.02;;
962;SDS011;469;48.770;9.176;2023-02-11T07:10:27;31.52;;;13.75;;
962;SDS011;469;48.770;9.176;2023-02-11T07:12:54;33.15;;;13.68;;
962;SDS011;469;48.770;9.176;2023-02-11T07:15:21;28.90;;;13.20;;
962;SDS011;469;48.770;9.176;2023-02-11T07:17:49;31.25;;;12.95;;
962;SDS011;469;48.770;9.176;2023-02-11T07:20:25;29.60;;;13.85;;
962;SDS011;469;48.770;9.176;2023-02-11T07:22:55;39.65;;;13.50;;
962;SDS011;469;48.770;9.176;2023-02-11T07:25:25;43.00;;;15.13;;
962;SDS011;469;48.770;9.176;2023-02-11T07:28:01;31.98;;;13.82;;
962;SDS011;469;48.770;9.176;2023-02-11T07:30:28;30.63;;;13.63;;
962;SDS011;469;48.770;9.176;2023-02-11T07:32:59;30.98;;;12.95;;
962;SDS011;469;48.770;9.176;2023-02-11T07:35:28;32.72;;;14.20;;
962;SDS011;469;48.770;9.176;2023-02-11T07:37:55;28.77;;;13.45;;
962;SDS011;469;48.770;9.176;2023-02-11T07:40:22;32.38;;;13.57;;
962;SDS011;469;48.770;9.176;2023-02-11T07:42:49;31.25;;;12.65;;
962;SDS011;469;48.770;9.176;2023-02-11T07:45:16;30.77;;;12.93;;
962;SDS011;469;48.770;9.176;2023-02-11T07:47:43;30.75;;;12.77;;
962;SDS011;469;48.770;9.176;2023-02-11T07:50:10;30.98;;;13.48;;
962;SDS011;469;48.770;9.176;2023-02-11T07:52:39;27.25;;;13.20;;
962;SDS011;469;48.770;9.176;2023-02-11T07:55:06;28.02;;;11.95;;
962;SDS011;469;48.770;9.176;2023-02-11T07:57:34;27.75;;;12.82;;
962;SDS011;469;48.770;9.176;2023-02-11T08:00:01;29.50;;;12.75;;
962;SDS011;469;48.770;9.176;2023-02-11T08:02:28;29.75;;;13.25;;
962;SDS011;469;48.770;9.176;2023-02-11T08:04:55;30.65;;;13.27;;
962;SDS011;469;48.770;9.176;2023-02-11T08:07:25;31.58;;;13.65;;
962;SDS011;469;48.770;9.176;2023-02-11T08:09:55;32.00;;;13.50;;
962;SDS011;469;48.770;9.176;2023-02-11T08:12:24;32.03;;;13.45;;
962;SDS011;469;48.770;9.176;2023-02-11T08:14:51;33.67;;;14.60;;
962;SDS011;469;48.770;9.176;2023-02-11T08:17:19;36.70;;;13.30;;
962;SDS011;469;48.770;9.176;2023-02-11T08:19:46;31.88;;;13.25;;
962;SDS011;469;48.770;9.176;2023-02-11T08:22:13;28.95;;;12.45;;
962;SDS011;469;48.770;9.176;2023-02-11T08:24:43;28.75;;;13.30;;
962;SDS011;469;48.770;9.176;2023-02-11T08:27:14;30.60;;;12.52;;
962;SDS011;469;48.770;9.176;2023-02-11T08:29:55;33.78;;;13.75;;
962;SDS011;469;48.770;9.176;2023-02-11T08:32:30;34.15;;;13.20;;
962;SDS011;469;48.770;9.176;2023-02-11T08:35:00;27.23;;;13.05;;
962;SDS011;469;48.770;9.176;2023-02-11T08:37:30;28.65;;;12.95;;
962;SDS011;469;48.770;9.176;2023-02-11T08:40:13;32.15;;;13.32;;
962;SDS011;469;48.770;9.176;2023-02-11T08:42:44;25.10;;;12.90;;
962;SDS011;469;48.770;9.176;2023-02-11T08:45:18;29.85;;;11.95;;
962;SDS011;469;48.770;9.176;2023-02-11T08:47:46;29.77;;;12.60;;
962;SDS011;469;48.770;9.176;2023-02-11T08:50:21;26.85;;;12.93;;
962;SDS011;469;48.770;9.176;2023-02-11T08:52:51;30.65;;;14.15;;
962;SDS011;469;48.770;9.176;2023-02-11T08:55:22;28.80;;;13.07;;
962;SDS011;469;48.770;9.176;2023-02-11T08:57:54;33.33;;;13.15;;
962;SDS011;469;48.770;9.176;2023-02-11T09:00:21;32.53;;;12.45;;
962;SDS011;469;48.770;9.176;2023-02-11T09:02:54;27.65;;;12.38;;
962;SDS011;469;48.770;9.176;2023-02-11T09:05:26;24.67;;;11.15;;
962;SDS011;469;48.770;9.176;2023-02-11T09:07:54;25.35;;;12.50;;
962;SDS011;469;48.770;9.176;2023-02-11T09:10:24;27.92;;;12.65;;
962;SDS011;469;48.770;9.176;2023-02-11T09:12:53;23.40;;;10.05;;
962;SDS011;469;48.770;9.176;2023-02-11T09:15:24;23.98;;;10.15;;
962;SDS011;469;48.770;9.176;2023-02-11T09:17:53;24.70;;;10.25;;
962;SDS011;469;48.770;9.176;2023-02-11T09:20:20;22.52;;;10.70;;
962;SDS011;469;48.770;9.176;2023-02-11T09:22:47;24.30;;;10.43;;
962;SDS011;469;48.770;9.176;2023-02-11T09:25:15;24.10;;;10.23;;
962;SDS011;469;48.770;9.176;2023-02-11T09:27:42;26.17;;;9.70;;
962;SDS011;469;48.770;9.176;2023-02-11T09:30:11;28.23;;;9.93;;
962;SDS011;469;48.770;9.176;2023-02-11T09:32:38;32.70;;;13.32;;
962;SDS011;469;48.770;9.176;2023-02-11T09:35:05;37.85;;;15.95;;
962;SDS011;469;48.770;9.176;2023-02-11T09:37:35;34.88;;;15.20;;
962;SDS011;469;48.770;9.176;2023-02-11T09:40:03;38.65;;;14.93;;
962;SDS011;469;48.770;9.176;2023-02-11T09:42:39;26.08;;;12.90;;
962;SDS011;469;48.770;9.176;2023-02-11T09:45:27;32.33;;;14.63;;
962;SDS011;469;48.770;9.176;2023-02-11T09:48:00;29.35;;;12.43;;
962;SDS011;469;48.770;9.176;2023-02-11T09:50:29;23.42;;;10.63;;
962;SDS011;469;48.770;9.176;2023-02-11T09:52:57;25.48;;;11.07;;
962;SDS011;469;48.770;9.176;2023-02-11T09:55:29;25.83;;;10.15;;
962;SDS011;469;48.770;9.176;2023-02-11T09:57:58;23.30;;;10.85;;
962;SDS011;469;48.770;9.176;2023-02-11T10:00:30;20.85;;;10.30;;
962;SDS011;469;48.770;9.176;2023-02-11T10:05:55;21.77;;;11.55;;
962;SDS011;469;48.770;9.176;2023-02-11T10:08:31;22.55;;;9.85;;
962;SDS011;469;48.770;9.176;2023-02-11T10:11:05;19.35;;;9.52;;
962;SDS011;469;48.770;9.176;2023-02-11T10:13:45;26.92;;;10.77;;
962;SDS011;469;48.770;9.176;2023-02-11T10:16:20;21.63;;;9.75;;
962;SDS011;469;48.770;9.176;2023-02-11T10:18:55;27.70;;;11.18;;
962;SDS011;469;48.770;9.176;2023-02-11T10:21:38;24.25;;;10.57;;
962;SDS011;469;48.770;9.176;2023-02-11T10:24:11;31.83;;;10.30;;
962;SDS011;469;48.770;9.176;2023-02-11T10:26:45;22.58;;;10.48;;
962;SDS011;469;48.770;9.176;2023-02-11T10:29:20;33.70;;;14.00;;
962;SDS011;469;48.770;9.176;2023-02-11T10:31:58;30.58;;;14.10;;
962;SDS011;469;48.770;9.176;2023-02-11T10:34:51;28.40;;;12.32;;
962;SDS011;469;48.770;9.176;2023-02-11T10:37:26;39.53;;;18.45;;
962;SDS011;469;48.770;9.176;2023-02-11T10:40:00;38.75;;;18.45;;
962;SDS011;469;48.770;9.176;2023-02-11T10:42:30;49.78;;;18.25;;
962;SDS011;469;48.770;9.176;2023-02-11T10:44:58;46.08;;;17.45;;
962;SDS011;469;48.770;9.176;2023-02-11T10:47:29;50.40;;;18.50;;
962;SDS011;469;48.770;9.176;2023-02-11T10:52:50;40.30;;;17.15;;
962;SDS011;469;48.770;9.176;2023-02-11T10:55:23;37.38;;;17.40;;
962;SDS011;469;48.770;9.176;2023-02-11T10:58:00;31.70;;;15.18;;
962;SDS011;469;48.770;9.176;2023-02-11T11:00:33;31.80;;;15.20;;
962;SDS011;469;48.770;9.176;2023-02-11T11:03:20;29.35;;;14.93;;
962;SDS011;469;48.770;9.176;2023-02-11T11:05:49;32.92;;;15.52;;
962;SDS011;469;48.770;9.176;2023-02-11T11:08:17;28.30;;;13.15;;
962;SDS011;469;48.770;9.176;2023-02-11T11:10:45;23.83;;;11.95;;
962;SDS011;469;48.770;9.176;2023-02-11T11:13:22;27.38;;;11.55;;
962;SDS011;469;48.770;9.176;2023-02-11T11:18:40;26.80;;;12.02;;
962;SDS011;469;48.770;9.176;2023-02-11T11:21:14;22.77;;;12.05;;
962;SDS011;469;48.770;9.176;2023-02-11T11:23:54;26.75;;;10.95;;
962;SDS011;469;48.770;9.176;2023-02-11T11:26:25;22.65;;;11.10;;
962;SDS011;469;48.770;9.176;2023-02-11T11:28:59;20.65;;;10.18;;
962;SDS011;469;48.770;9.176;2023-02-11T11:31:30;29.75;;;11.00;;
962;SDS011;469;48.770;9.176;2023-02-11T11:34:02;24.25;;;10.35;;
962;SDS011;469;48.770;9.176;2023-02-11T11:36:39;19.40;;;9.90;;
962;SDS011;469;48.770;9.176;2023-02-11T11:39:19;19.55;;;9.57;;
962;SDS011;469;48.770;9.176;2023-02-11T11:41:49;16.90;;;9.23;;
962;SDS011;469;48.770;9.176;2023-02-11T11:44:20;18.83;;;10.13;;
962;SDS011;469;48.770;9.176;2023-02-11T11:46:52;20.75;;;9.73;;
962;SDS011;469;48.770;9.176;2023-02-11T11:49:36;21.65;;;10.00;;
962;SDS011;469;48.770;9.176;2023-02-11T11:52:09;16.42;;;9.27;;
962;SDS011;469;48.770;9.176;2023-02-11T11:54:45;20.80;;;10.48;;
962;SDS011;469;48.770;9.176;2023-02-11T11:57:14;22.63;;;8.70;;
962;SDS011;469;48.770;9.176;2023-02-11T11:59:46;19.40;;;8.70;;
962;SDS011;469;48.770;9.176;2023-02-11T12:02:29;20.70;;;9.05;;
962;SDS011;469;48.770;9.176;2023-02-11T12:05:06;18.58;;;8.30;;
962;SDS011;469;48.770;9.176;2023-02-11T12:07:49;22.02;;;7.97;;
962;SDS011;469;48.770;9.176;2023-02-11T12:10:32;21.50;;;9.57;;
962;SDS011;469;48.770;9.176;2023-02-11T12:13:02;19.77;;;7.82;;
962;SDS011;469;48.770;9.176;2023-02-11T12:15:35;18.55;;;7.75;;
962;SDS011;469;48.770;9.176;2023-02-11T12:23:56;16.83;;;7.20;;
962;SDS011;469;48.770;9.176;2023-02-11T12:26:27;15.52;;;7.93;;
962;SDS011;469;48.770;9.176;2023-02-11T12:29:02;15.63;;;8.00;;
962;SDS011;469;48.770;9.176;2023-02-11T12:31:47;23.73;;;12.35;;
962;SDS011;469;48.770;9.176;2023-02-11T12:34:33;18.17;;;9.25;;
962;SDS011;469;48.770;9.176;2023-02-11T12:37:04;16.75;;;8.43;;
962;SDS011;469;48.770;9.176;2023-02-11T12:39:39;20.65;;;8.93;;
962;SDS011;469;48.770;9.176;2023-02-11T12:45:28;15.20;;;7.97;;
962;SDS011;469;48.770;9.176;2023-02-11T12:48:14;16.35;;;7.22;;
962;SDS011;469;48.770;9.176;2023-02-11T12:50:54;21.27;;;7.45;;
962;SDS011;469;48.770;9.176;2023-02-11T12:53:34;21.30;;;7.57;;
962;SDS011;469;48.770;9.176;2023-02-11T12:56:15;15.45;;;7.65;;
962;SDS011;469;48.770;9.176;2023-02-11T12:58:47;13.68;;;7.07;;
962;SDS011;469;48.770;9.176;2023-02-11T13:01:17;15.35;;;6.78;;
962;SDS011;469;48.770;9.176;2023-02-11T13:03:54;15.02;;;6.75;;
962;SDS011;469;48.770;9.176;2023-02-11T13:06:27;16.50;;;7.90;;
962;SDS011;469;48.770;9.176;2023-02-11T13:08:56;18.38;;;7.35;;
962;SDS011;469;48.770;9.176;2023-02-11T13:11:27;12.88;;;6.32;;
962;SDS011;469;48.770;9.176;2023-02-11T13:14:03;15.82;;;6.68;;
962;SDS011;469;48.770;9.176;2023-02-11T13:16:35;16.83;;;7.60;;
962;SDS011;469;48.770;9.176;2023-02-11T13:19:06;18.65;;;6.78;;
962;SDS011;469;48.770;9.176;2023-02-11T13:21:46;11.02;;;5.22;;
962;SDS011;469;48.770;9.176;2023-02-11T13:24:28;14.48;;;6.05;;
962;SDS011;469;48.770;9.176;2023-02-11T13:27:10;19.90;;;6.72;;
962;SDS011;469;48.770;9.176;2023-02-11T13:36:14;19.85;;;6.65;;
962;SDS011;469;48.770;9.176;2023-02-11T13:38:50;17.58;;;6.38;;
962;SDS011;469;48.770;9.176;2023-02-11T13:41:31;19.20;;;8.82;;
962;SDS011;469;48.770;9.176;2023-02-11T13:46:55;36.45;;;11.52;;
962;SDS011;469;48.770;9.176;2023-02-11T13:49:32;26.50;;;11.95;;
962;SDS011;469;48.770;9.176;2023-02-11T13:52:04;27.90;;;11.80;;
962;SDS011;469;48.770;9.176;2023-02-11T13:54:45;28.52;;;13.52;;
962;SDS011;469;48.770;9.176;2023-02-11T13:57:24;29.75;;;13.20;;
962;SDS011;469;48.770;9.176;2023-02-11T14:00:08;33.53;;;13.10;;
962;SDS011;469;48.770;9.176;2023-02-11T14:06:18;26.98;;;11.80;;
962;SDS011;469;48.770;9.176;2023-02-11T14:12:32;33.20;;;14.52;;
962;SDS011;469;48.770;9.176;2023-02-11T14:21:12;37.03;;;15.30;;
962;SDS011;469;48.770;9.176;2023-02-11T14:23:42;30.48;;;13.05;;
962;SDS011;469;48.770;9.176;2023-02-11T14:26:25;22.65;;;11.77;;
962;SDS011;469;48.770;9.176;2023-02-11T14:29:00;31.58;;;12.43;;
962;SDS011;469;48.770;9.176;2023-02-11T14:31:53;32.90;;;11.48;;
962;SDS011;469;48.770;9.176;2023-02-11T14:40:24;29.67;;;12.70;;
962;SDS011;469;48.770;9.176;2023-02-11T14:42:57;29.55;;;11.57;;
962;SDS011;469;48.770;9.176;2023-02-11T14:45:36;26.88;;;11.48;;
962;SDS011;469;48.770;9.176;2023-02-11T14:48:06;23.60;;;11.15;;
962;SDS011;469;48.770;9.176;2023-02-11T14:50:47;30.17;;;10.73;;
962;SDS011;469;48.770;9.176;2023-02-11T14:53:18;24.98;;;10.20;;
962;SDS011;469;48.770;9.176;2023-02-11T14:55:49;31.13;;;11.13;;
962;SDS011;469;48.770;9.176;2023-02-11T14:58:20;23.45;;;9.88;;
962;SDS011;469;48.770;9.176;2023-02-11T15:00:55;27.40;;;11.02;;
962;SDS011;469;48.770;9.176;2023-02-11T15:03:25;22.67;;;10.15;;
962;SDS011;469;48.770;9.176;2023-02-11T15:06:06;17.75;;;8.70;;
962;SDS011;469;48.770;9.176;2023-02-11T15:08:46;24.35;;;10.50;;
962;SDS011;469;48.770;9.176;2023-02-11T15:11:16;24.25;;;10.30;;
962;SDS011;469;48.770;9.176;2023-02-11T15:13:45;20.08;;;10.10;;
962;SDS011;469;48.770;9.176;2023-02-11T15:16:19;23.42;;;10.80;;
962;SDS011;469;48.770;9.176;2023-02-11T15:18:55;25.77;;;11.93;;
962;SDS011;469;48.770;9.176;2023-02-11T15:21:32;27.27;;;11.38;;
962;SDS011;469;48.770;9.176;2023-02-11T15:24:21;32.00;;;13.55;;
962;SDS011;469;48.770;9.176;2023-02-11T15:27:00;28.13;;;13.40;;
962;SDS011;469;48.770;9.176;2023-02-11T15:29:34;24.98;;;12.75;;
962;SDS011;469;48.770;9.176;2023-02-11T15:32:04;23.55;;;11.25;;
962;SDS011;469;48.770;9.176;2023-02-11T15:34:32;24.95;;;11.60;;
962;SDS011;469;48.770;9.176;2023-02-11T15:37:01;25.48;;;11.77;;
962;SDS011;469;48.770;9.176;2023-02-11T15:39:31;22.95;;;11.38;;
962;SDS011;469;48.770;9.176;2023-02-11T15:42:19;27.40;;;12.07;;
962;SDS011;469;48.770;9.176;2023-02-11T15:45:06;27.55;;;11.82;;
962;SDS011;469;48.770;9.176;2023-02-11T15:47:35;29.52;;;11.80;;
962;SDS011;469;48.770;9.176;2023-02-11T15:50:05;25.13;;;12.23;;
962;SDS011;469;48.770;9.176;2023-02-11T15:52:44;24.65;;;11.25;;
962;SDS011;469;48.770;9.176;2023-02-11T15:55:20;27.02;;;12.38;;
962;SDS011;469;48.770;9.176;2023-02-11T15:57:49;23.20;;;11.77;;
962;SDS011;469;48.770;9.176;2023-02-11T16:00:19;24.25;;;11.60;;
962;SDS011;469;48.770;9.176;2023-02-11T16:02:49;21.65;;;11.50;;
962;SDS011;469;48.770;9.176;2023-02-11T16:05:22;29.30;;;12.23;;
962;SDS011;469;48.770;9.176;2023-02-11T16:08:00;26.92;;;11.70;;
962;SDS011;469;48.770;9.176;2023-02-11T16:10:52;25.80;;;12.70;;
962;SDS011;469;48.770;9.176;2023-02-11T16:13:22;21.67;;;11.55;;
962;SDS011;469;48.770;9.176;2023-02-11T16:15:53;23.58;;;11.90;;
962;SDS011;469;48.770;9.176;2023-02-11T16:18:32;27.00;;;13.40;;
962;SDS011;469;48.770;9.176;2023-02-11T16:21:02;26.27;;;12.02;;
962;SDS011;469;48.770;9.176;2023-02-11T16:23:36;27.40;;;14.07;;
962;SDS011;469;48.770;9.176;2023-02-11T16:26:12;24.40;;;12.23;;
962;SDS011;469;48.770;9.176;2023-02-11T16:29:02;30.05;;;13.38;;
962;SDS011;469;48.770;9.176;2023-02-11T16:31:40;27.73;;;12.85;;
962;SDS011;469;48.770;9.176;2023-02-11T16:34:14;37.35;;;13.80;;